Ansonia, NY

7:49 PM EDT on September 02, 2014 (GMT -0400)
WCBS TELEVISION | Change Station
CLOSE
Current Station
Personal Weather Station
Location: New York, NY
Elevation: 13 ft
Nearby Weather Stations
Active Advisory: Air Quality Alert

Elev 13 ft 40.77 °N, 73.99 °W | Updated 1 second ago

Clear
Clear
89.1 °F
Feels Like 94 °F
N
3.3
Wind Variable Wind from SW
Gusts 3.5 mph

Today
High -- | Low -- °F
--% Chance of Precip.
Yesterday
High -- | Low -- °F
Precip. -- in
6:23 AM 7:26 PM
First Quarter, 56% visible
Pressure 29.80 in
Visibility 10.0 miles
Clouds Clear
Heat Index 94 °F
Dew Point 69 °F
Humidity 52%
Rainfall 0.00 in
Snow Depth Not available.
UV 0 out of 12
Pollen 8.40 out of 12
PM2.5 Moderate
Flu Activity Not available.
METAR KNYC 022251Z AUTO 24009G16KT 200V280 10SM CLR 32/18 A2983 RMK AO2 SLP091 T03170178 $

More Conditions Fewer Conditions

Pressure 29.80 in
Visibility 10.0 miles
Clouds Clear
Heat Index 94 °F
Dew Point 69 °F
Humidity 52%
Rainfall 0.00 in
Snow Depth Not available.
UV 0 out of 12
Pollen 8.40 out of 12
PM2.5 Moderate
Flu Activity Not available.
METAR KNYC 022251Z AUTO 24009G16KT 200V280 10SM CLR 32/18 A2983 RMK AO2 SLP091 T03170178 $

More Conditions Fewer Conditions

10-Day Weather Forecast

Almanac

Astronomy

Sep. 02, 2014 Rise Set
Actual Time 6:23 AM EDT 7:26 PM EDT
Civil Twilight 5:55 AM EDT 7:54 PM EDT
Nautical Twilight 5:22 AM EDT 8:27 PM EDT
Astronomical Twilight 4:47 AM EDT 9:02 PM EDT
Moon 2:08 PM EDT No Moon Set
Length of Visible Light 13h 58m
Length of Day
13h 02m
Tomorrow will be 2m 37s shorter.
First Quarter, 56% of the Moon is Illuminated
Today
First Quarter
Sep 8
Full
Sep 15
Last Quarter
Sep 24
New
Oct 1
First Quarter

Today's Extremes

State Highs State Lows

Community

WunderPhotos

Upload Photos

1,749,799 photos uploaded!

Nearby

Air Quality

  Air Quality AQ Index Pollutant
Yesterday Good
OZONE
Yesterday Good
PM2.5
Current Moderate
PM2.5
Tuesday Unhealthy for Sensitive Groups
OZONE
Tuesday Moderate
PM2.5
Wednesday Good
OZONE
Wednesday Good
PM2.5

Snow Depth

Station Depth Elevation
No new snow has been reported.

Earthquake Activity

City Distance Mag. Time & Date
No recent earthquake activity has been reported nearby.
Minimum magnitude displayed is 2.5.

Coastal Water Temperatures

Place Temperature
Sandy Hook, NJ 79.0 °F
The Battery, NY 77.0 °F
Bergen Point West Reach, NJ 77.0 °F
Kings Point, NY 75.0 °F

Nearby Weather Stations